createdAt,value
2022-12-01T10:29:50.264Z,101826.38
2022-12-01T11:31:45.656Z,101794.22
2022-12-01T11:34:24.421Z,101788.69
2022-12-01T11:36:55.076Z,101794.03
2022-12-01T11:39:29.516Z,101794.69
2022-12-01T11:41:59.626Z,101788.09
2022-12-01T11:44:50.386Z,101792.44
2022-12-01T11:50:26.603Z,101786.38
2022-12-01T11:52:53.270Z,101785.25
2022-12-01T11:55:23.650Z,101786.38
2022-12-01T11:57:53.577Z,101790.28
2022-12-01T12:00:23.358Z,101789.50
2022-12-01T12:03:09.479Z,101790.28
2022-12-01T12:06:40.244Z,101787.19
2022-12-01T12:08:56.951Z,101783.19
2022-12-01T12:11:57.023Z,101783.34
2022-12-01T12:14:35.767Z,101777.09
2022-12-01T12:17:26.435Z,101791.00
2022-12-01T12:20:19.208Z,101790.28
2022-12-01T12:23:06.452Z,101789.19
2022-12-01T12:25:49.110Z,101783.75
2022-12-01T12:28:34.319Z,101781.84
2022-12-01T12:31:14.705Z,101779.19
2022-12-01T12:34:02.949Z,101780.06
2022-12-01T12:36:50.865Z,101781.75
2022-12-01T12:39:34.323Z,101779.84
2022-12-01T12:42:09.919Z,101779.97
2022-12-01T12:44:37.623Z,101784.75
2022-12-01T12:47:22.694Z,101789.19
2022-12-01T12:50:01.175Z,101802.28
2022-12-01T12:52:35.820Z,101803.88
2022-12-01T12:55:11.568Z,101805.47
2022-12-01T13:07:53.113Z,101796.25
2022-12-01T13:10:47.542Z,101789.13
2022-12-01T13:13:32.985Z,101786.41
2022-12-01T13:16:04.073Z,101782.19
2022-12-01T13:18:59.568Z,101783.47
2022-12-01T13:21:38.042Z,101778.09
2022-12-01T13:24:06.290Z,101792.78
2022-12-01T13:26:36.487Z,101790.16
2022-12-01T13:29:07.686Z,101787.09
2022-12-01T13:31:48.755Z,101782.88
2022-12-01T13:34:34.766Z,101786.09
2022-12-01T13:37:01.905Z,101788.16
2022-12-01T13:39:37.880Z,101779.09
2022-12-01T13:42:04.634Z,101788.19
2022-12-01T13:44:38.208Z,101786.66
2022-12-01T13:47:24.992Z,101786.72
2022-12-01T13:49:53.375Z,101795.81
2022-12-01T13:52:23.472Z,101796.66
2022-12-01T13:55:08.302Z,101790.84
2022-12-01T13:57:40.612Z,101790.09
2022-12-01T14:00:30.817Z,101790.59
2022-12-01T14:03:12.866Z,101783.13
2022-12-01T14:05:39.667Z,101790.72
2022-12-01T14:08:23.757Z,101788.78
2022-12-01T14:11:00.623Z,101795.22
2022-12-01T14:13:30.184Z,101788.13
2022-12-01T14:15:59.740Z,101788.53
2022-12-01T14:18:36.183Z,101785.84
2022-12-01T14:21:06.651Z,101784.31
2022-12-01T14:23:40.975Z,101781.91
2022-12-01T14:26:18.232Z,101778.38
2022-12-01T14:29:00.232Z,101777.63
2022-12-01T14:31:32.985Z,101771.28
2022-12-01T14:34:21.952Z,101767.34
2022-12-01T14:37:03.634Z,101758.25
2022-12-01T14:39:40.481Z,101752.72
2022-12-01T14:42:15.847Z,101754.69
2022-12-01T14:44:49.091Z,101752.31
2022-12-01T14:47:16.008Z,101753.47
2022-12-01T14:50:06.320Z,101759.44
2022-12-01T14:52:45.276Z,101747.94
2022-12-01T14:55:25.277Z,101751.50
2022-12-01T14:58:00.886Z,101758.22
2022-12-01T15:00:27.607Z,101758.22
2022-12-01T15:02:59.378Z,101763.38
2022-12-01T15:05:28.906Z,101759.00
2022-12-01T15:08:18.745Z,101766.13
2022-12-01T15:10:58.017Z,101758.22
2022-12-01T15:13:27.848Z,101761.78
2022-12-01T15:16:01.561Z,101760.97
2022-12-01T15:18:29.696Z,101764.56
2022-12-01T15:21:01.379Z,101764.56
2022-12-01T15:23:28.348Z,101762.56
2022-12-01T15:25:55.755Z,101759.81
2022-12-01T15:28:33.384Z,101754.28
2022-12-01T15:31:01.872Z,101753.84
2022-12-01T15:33:37.274Z,101757.03
2022-12-01T15:36:28.826Z,101755.06
2022-12-01T15:38:56.243Z,101755.44
2022-12-01T15:41:31.325Z,101757.03
2022-12-01T15:43:59.923Z,101754.66
2022-12-01T15:46:33.913Z,101760.59
2022-12-01T15:49:29.815Z,101757.03
2022-12-01T15:52:07.519Z,101763.00
2022-12-01T15:54:34.592Z,101754.69
2022-12-01T15:57:02.221Z,101746.81
2022-12-01T15:59:39.957Z,101747.63
2022-12-01T16:02:20.477Z,101756.28
2022-12-01T16:04:49.435Z,101756.66
2022-12-01T16:07:16.534Z,101758.63
2022-12-01T16:09:57.627Z,101751.50
2022-12-01T16:12:26.890Z,101748.31
2022-12-01T16:15:12.310Z,101764.56
2022-12-01T16:17:52.676Z,101751.09
2022-12-01T16:23:26.335Z,101745.09
2022-12-01T16:25:55.602Z,101751.16
2022-12-01T16:28:33.230Z,101747.56
2022-12-01T16:31:00.149Z,101743.78
2022-12-01T16:33:28.708Z,101749.47
2022-12-01T16:35:55.879Z,101748.72
2022-12-01T16:38:25.102Z,101741.66
2022-12-01T16:41:02.414Z,101746.03
2022-12-01T16:43:29.663Z,101740.88
2022-12-01T16:46:04.209Z,101737.72
2022-12-01T16:48:31.775Z,101730.97
2022-12-01T16:51:02.557Z,101735.31
2022-12-01T16:53:29.310Z,101734.53
2022-12-01T16:55:58.362Z,101732.94
2022-12-01T16:58:25.705Z,101728.59
2022-12-01T17:00:53.047Z,101726.59
2022-12-01T17:03:25.075Z,101707.97
2022-12-01T17:06:01.864Z,101714.31
2022-12-01T17:08:30.318Z,101717.09
2022-12-01T17:10:57.438Z,101710.75
2022-12-01T17:13:24.261Z,101716.69
2022-12-01T17:15:53.548Z,101715.50
2022-12-01T17:18:22.125Z,101719.06
2022-12-01T17:21:04.054Z,101715.53
2022-12-01T17:23:30.840Z,101717.09
2022-12-01T17:25:57.570Z,101718.28
2022-12-01T17:28:24.377Z,101715.44
2022-12-01T17:30:51.199Z,101718.59
2022-12-01T17:33:18.216Z,101721.78
2022-12-01T17:35:44.940Z,101719.00
2022-12-01T17:38:11.621Z,101711.47
2022-12-01T17:40:38.285Z,101714.25
2022-12-01T17:43:08.011Z,101703.56
2022-12-01T17:45:36.420Z,101705.53
2022-12-01T17:48:03.395Z,101714.25
2022-12-01T17:50:30.031Z,101717.03
2022-12-01T17:52:56.830Z,101717.84
2022-12-01T17:55:25.452Z,101741.97
2022-12-01T17:57:52.567Z,101715.16
2022-12-01T18:00:20.005Z,101721.22
2022-12-01T18:02:46.943Z,101713.19
2022-12-01T18:05:13.730Z,101715.09
2022-12-01T18:07:40.757Z,101719.94
2022-12-01T18:10:07.852Z,101709.88
2022-12-01T18:12:35.629Z,101716.06
2022-12-01T18:15:03.405Z,101720.75
2022-12-01T18:17:30.186Z,101723.09
2022-12-01T18:19:57.356Z,101724.25
2022-12-01T18:22:23.985Z,101725.44
2022-12-01T18:24:50.821Z,101719.53
2022-12-01T18:27:17.790Z,101719.53
2022-12-01T18:29:44.543Z,101725.06
2022-12-01T18:32:11.282Z,101715.97
2022-12-01T18:34:38.042Z,101721.06
2022-12-01T18:37:04.831Z,101717.16
2022-12-01T18:39:32.592Z,101722.22
2022-12-01T18:41:59.671Z,101717.50
2022-12-01T18:44:26.971Z,101717.50
2022-12-01T18:46:53.806Z,101725.44
2022-12-01T18:49:20.588Z,101724.97
2022-12-01T18:51:47.382Z,101739.59
2022-12-01T18:54:15.866Z,101734.06
2022-12-01T18:56:43.074Z,101735.66
2022-12-01T18:59:11.242Z,101737.63
2022-12-01T19:01:41.547Z,101733.72
2022-12-01T19:04:10.441Z,101730.13
2022-12-01T19:06:39.247Z,101742.38
2022-12-01T19:09:07.953Z,101742.38
2022-12-01T19:11:35.863Z,101736.84
2022-12-01T19:14:02.666Z,101734.06
2022-12-01T19:16:30.116Z,101740.78
2022-12-01T19:18:57.326Z,101739.97
2022-12-01T19:21:24.082Z,101742.75
2022-12-01T19:23:50.850Z,101740.78
2022-12-01T19:26:21.064Z,101737.22
2022-12-01T19:28:49.741Z,101741.94
2022-12-01T19:31:22.296Z,101744.72
2022-12-01T19:33:49.706Z,101738.38
2022-12-01T19:36:19.374Z,101740.34
2022-12-01T19:38:46.511Z,101746.25
2022-12-01T19:41:14.065Z,101746.69
2022-12-01T19:43:41.742Z,101745.09
2022-12-01T19:46:13.691Z,101743.13
2022-12-01T19:48:40.956Z,101749.00
2022-12-01T19:51:15.286Z,101740.34
2022-12-01T19:53:42.103Z,101737.16
2022-12-01T19:56:09.619Z,101744.28
2022-12-01T19:58:36.346Z,101748.22
2022-12-01T20:01:08.800Z,101745.88
2022-12-01T20:03:35.847Z,101739.56
2022-12-01T20:06:05.428Z,101738.38
2022-12-01T20:08:35.733Z,101742.31
2022-12-01T20:11:03.801Z,101744.72
2022-12-01T20:13:32.215Z,101745.88
2022-12-01T20:16:13.970Z,101756.19
2022-12-01T20:18:44.703Z,101754.59
2022-12-01T20:21:17.680Z,101761.72
2022-12-01T20:23:46.747Z,101768.41
2022-12-01T20:26:14.792Z,101771.97
2022-12-01T20:28:42.056Z,101770.00
2022-12-01T20:31:31.338Z,101773.56
2022-12-01T20:34:00.382Z,101773.56
2022-12-01T20:36:27.611Z,101769.22
2022-12-01T20:38:54.864Z,101768.03
2022-12-01T20:41:21.978Z,101771.59
2022-12-01T20:43:48.940Z,101766.06
2022-12-01T20:46:16.838Z,101766.06
2022-12-01T20:48:43.825Z,101769.66
2022-12-01T20:51:13.307Z,101767.69
2022-12-01T20:53:40.786Z,101760.53
2022-12-01T20:56:10.852Z,101768.50
2022-12-01T20:58:38.957Z,101773.22
2022-12-01T21:01:17.208Z,101762.97
2022-12-01T21:03:45.590Z,101765.72
2022-12-01T21:06:15.048Z,101765.72
2022-12-01T21:08:43.665Z,101771.25
2022-12-01T21:11:36.620Z,101767.31
2022-12-01T21:14:04.790Z,101768.50
2022-12-01T21:16:33.078Z,101769.28
2022-12-01T21:19:11.022Z,101756.28
2022-12-01T21:21:41.953Z,101766.16
2022-12-01T21:24:08.680Z,101762.59
2022-12-01T21:26:40.405Z,101749.56
2022-12-01T21:29:21.139Z,101761.41
2022-12-01T21:31:50.764Z,101758.66
2022-12-01T21:34:21.360Z,101753.13
2022-12-01T21:36:50.095Z,101747.59
2022-12-01T21:39:19.573Z,101749.19
2022-12-01T21:41:47.947Z,101739.31
2022-12-01T21:44:20.002Z,101738.13
2022-12-01T21:46:50.183Z,101744.84
2022-12-01T21:49:22.051Z,101738.13
2022-12-01T21:51:52.784Z,101740.09
2022-12-01T21:54:21.119Z,101738.13
2022-12-01T21:56:48.963Z,101731.00
2022-12-01T21:59:23.503Z,101738.94
2022-12-01T22:01:57.646Z,101736.16
2022-12-01T22:04:33.452Z,101739.72
2022-12-01T22:07:00.180Z,101739.72
2022-12-01T22:09:31.299Z,101738.56
2022-12-01T22:12:11.646Z,101744.09
2022-12-01T22:14:38.970Z,101729.47
2022-12-01T22:17:05.662Z,101734.63
2022-12-01T22:19:34.569Z,101738.19
2022-12-01T22:22:23.249Z,101739.81
2022-12-01T22:24:56.606Z,101737.84
2022-12-01T22:27:41.798Z,101731.50
2022-12-01T22:30:08.483Z,101739.00
2022-12-01T22:32:58.545Z,101728.75
2022-12-01T22:35:39.230Z,101735.06
2022-12-01T22:38:05.992Z,101728.75
2022-12-01T22:40:47.974Z,101730.34
2022-12-01T22:43:17.748Z,101731.13
2022-12-01T22:46:01.676Z,101729.97
2022-12-01T22:48:36.246Z,101729.97
2022-12-01T22:51:15.086Z,101727.63
2022-12-01T22:53:43.958Z,101728.00
2022-12-01T22:56:31.954Z,101721.31
2022-12-01T22:58:58.722Z,101715.78
2022-12-01T23:01:31.081Z,101724.47
2022-12-01T23:04:22.023Z,101721.72
2022-12-01T23:06:51.598Z,101722.50
2022-12-01T23:09:19.095Z,101722.50
2022-12-01T23:11:55.233Z,101722.16
2022-12-01T23:14:23.618Z,101716.63
2022-12-01T23:16:56.659Z,101716.63
2022-12-01T23:19:23.439Z,101708.34
2022-12-01T23:21:52.535Z,101708.34
2022-12-01T23:24:19.374Z,101715.03
2022-12-01T23:26:47.191Z,101711.44
2022-12-01T23:29:13.928Z,101713.44
2022-12-01T23:31:41.224Z,101716.19
2022-12-01T23:34:15.158Z,101716.97
2022-12-01T23:36:43.117Z,101723.69
2022-12-01T23:39:12.746Z,101723.69
2022-12-01T23:41:43.136Z,101723.69
2022-12-01T23:44:38.822Z,101720.91
2022-12-01T23:47:16.962Z,101722.88
2022-12-01T23:49:43.945Z,101727.63
2022-12-01T23:52:17.974Z,101724.84
2022-12-01T23:54:44.917Z,101729.59
2022-12-01T23:57:23.781Z,101728.41
2022-12-01T23:59:54.486Z,101729.22
